sensor_id;sensor_type;location;lat;lon;timestamp;P1;durP1;ratioP1;P2;durP2;ratioP2
11763;SDS011;5939;56.522;14.950;2023-10-13T00:00:31;6.23;;;1.60;;
11763;SDS011;5939;56.522;14.950;2023-10-13T00:03:05;3.73;;;1.60;;
11763;SDS011;5939;56.522;14.950;2023-10-13T00:05:33;4.23;;;1.47;;
11763;SDS011;5939;56.522;14.950;2023-10-13T00:07:59;4.37;;;1.43;;
11763;SDS011;5939;56.522;14.950;2023-10-13T00:10:27;2.83;;;1.37;;
11763;SDS011;5939;56.522;14.950;2023-10-13T00:12:53;3.67;;;1.70;;
11763;SDS011;5939;56.522;14.950;2023-10-13T00:15:19;7.77;;;1.77;;
11763;SDS011;5939;56.522;14.950;2023-10-13T00:17:53;2.63;;;1.73;;
11763;SDS011;5939;56.522;14.950;2023-10-13T00:20:20;3.17;;;1.70;;
11763;SDS011;5939;56.522;14.950;2023-10-13T00:23:02;2.57;;;1.23;;
11763;SDS011;5939;56.522;14.950;2023-10-13T00:25:28;4.33;;;1.73;;
11763;SDS011;5939;56.522;14.950;2023-10-13T00:28:08;6.30;;;1.80;;
11763;SDS011;5939;56.522;14.950;2023-10-13T00:30:34;4.70;;;1.80;;
11763;SDS011;5939;56.522;14.950;2023-10-13T00:33:02;2.70;;;1.50;;
11763;SDS011;5939;56.522;14.950;2023-10-13T00:35:29;6.10;;;2.07;;
11763;SDS011;5939;56.522;14.950;2023-10-13T00:38:02;4.27;;;1.70;;
11763;SDS011;5939;56.522;14.950;2023-10-13T00:40:48;5.27;;;1.80;;
11763;SDS011;5939;56.522;14.950;2023-10-13T00:43:17;4.90;;;1.50;;
11763;SDS011;5939;56.522;14.950;2023-10-13T00:45:48;5.07;;;1.70;;
11763;SDS011;5939;56.522;14.950;2023-10-13T00:48:37;5.30;;;1.67;;
11763;SDS011;5939;56.522;14.950;2023-10-13T00:51:08;7.20;;;1.83;;
11763;SDS011;5939;56.522;14.950;2023-10-13T00:53:55;3.97;;;1.43;;
11763;SDS011;5939;56.522;14.950;2023-10-13T00:56:21;4.50;;;1.80;;
11763;SDS011;5939;56.522;14.950;2023-10-13T00:58:52;5.10;;;1.60;;
11763;SDS011;5939;56.522;14.950;2023-10-13T01:01:19;5.23;;;1.50;;
11763;SDS011;5939;56.522;14.950;2023-10-13T01:03:54;3.97;;;1.50;;
11763;SDS011;5939;56.522;14.950;2023-10-13T01:06:33;5.97;;;1.70;;
11763;SDS011;5939;56.522;14.950;2023-10-13T01:09:06;3.77;;;1.80;;
11763;SDS011;5939;56.522;14.950;2023-10-13T01:11:41;6.80;;;1.70;;
11763;SDS011;5939;56.522;14.950;2023-10-13T01:14:18;4.93;;;1.60;;
11763;SDS011;5939;56.522;14.950;2023-10-13T01:16:45;7.27;;;2.40;;
11763;SDS011;5939;56.522;14.950;2023-10-13T01:19:12;6.20;;;1.30;;
11763;SDS011;5939;56.522;14.950;2023-10-13T01:21:39;5.80;;;1.70;;
11763;SDS011;5939;56.522;14.950;2023-10-13T01:24:09;4.23;;;1.90;;
11763;SDS011;5939;56.522;14.950;2023-10-13T01:26:39;5.77;;;1.97;;
11763;SDS011;5939;56.522;14.950;2023-10-13T01:29:06;4.97;;;1.70;;
11763;SDS011;5939;56.522;14.950;2023-10-13T01:31:43;2.13;;;1.50;;
11763;SDS011;5939;56.522;14.950;2023-10-13T01:34:15;4.27;;;1.57;;
11763;SDS011;5939;56.522;14.950;2023-10-13T01:36:49;5.97;;;2.03;;
11763;SDS011;5939;56.522;14.950;2023-10-13T01:39:19;4.33;;;1.87;;
11763;SDS011;5939;56.522;14.950;2023-10-13T01:41:46;4.07;;;1.70;;
11763;SDS011;5939;56.522;14.950;2023-10-13T01:44:20;4.40;;;1.57;;
11763;SDS011;5939;56.522;14.950;2023-10-13T01:46:58;2.90;;;1.57;;
11763;SDS011;5939;56.522;14.950;2023-10-13T01:49:31;5.00;;;1.63;;
11763;SDS011;5939;56.522;14.950;2023-10-13T01:52:06;4.20;;;1.60;;
11763;SDS011;5939;56.522;14.950;2023-10-13T01:54:33;4.90;;;1.80;;
11763;SDS011;5939;56.522;14.950;2023-10-13T01:56:59;5.20;;;1.67;;
11763;SDS011;5939;56.522;14.950;2023-10-13T01:59:25;6.30;;;1.60;;
11763;SDS011;5939;56.522;14.950;2023-10-13T02:01:51;3.83;;;1.57;;
11763;SDS011;5939;56.522;14.950;2023-10-13T02:04:21;4.30;;;1.47;;
11763;SDS011;5939;56.522;14.950;2023-10-13T02:06:46;3.80;;;1.70;;
11763;SDS011;5939;56.522;14.950;2023-10-13T02:09:12;3.83;;;1.23;;
11763;SDS011;5939;56.522;14.950;2023-10-13T02:11:41;4.47;;;1.73;;
11763;SDS011;5939;56.522;14.950;2023-10-13T02:14:10;3.03;;;1.47;;
11763;SDS011;5939;56.522;14.950;2023-10-13T02:16:37;4.57;;;1.47;;
11763;SDS011;5939;56.522;14.950;2023-10-13T02:19:04;3.53;;;1.50;;
11763;SDS011;5939;56.522;14.950;2023-10-13T02:21:30;5.10;;;1.50;;
11763;SDS011;5939;56.522;14.950;2023-10-13T02:24:05;3.47;;;1.20;;
11763;SDS011;5939;56.522;14.950;2023-10-13T02:26:37;4.00;;;1.80;;
11763;SDS011;5939;56.522;14.950;2023-10-13T02:29:06;5.80;;;1.80;;
11763;SDS011;5939;56.522;14.950;2023-10-13T02:31:39;2.87;;;1.50;;
11763;SDS011;5939;56.522;14.950;2023-10-13T02:34:06;4.00;;;1.87;;
11763;SDS011;5939;56.522;14.950;2023-10-13T02:36:37;3.70;;;1.53;;
11763;SDS011;5939;56.522;14.950;2023-10-13T02:39:19;5.13;;;1.57;;
11763;SDS011;5939;56.522;14.950;2023-10-13T02:41:52;4.43;;;1.90;;
11763;SDS011;5939;56.522;14.950;2023-10-13T02:44:20;7.80;;;2.17;;
11763;SDS011;5939;56.522;14.950;2023-10-13T02:46:53;4.33;;;1.70;;
11763;SDS011;5939;56.522;14.950;2023-10-13T02:49:21;3.67;;;1.60;;
11763;SDS011;5939;56.522;14.950;2023-10-13T02:51:47;5.27;;;1.63;;
11763;SDS011;5939;56.522;14.950;2023-10-13T02:54:13;4.77;;;1.67;;
11763;SDS011;5939;56.522;14.950;2023-10-13T02:56:43;4.33;;;1.70;;
11763;SDS011;5939;56.522;14.950;2023-10-13T02:59:15;4.23;;;1.77;;
11763;SDS011;5939;56.522;14.950;2023-10-13T03:01:44;6.03;;;1.80;;
11763;SDS011;5939;56.522;14.950;2023-10-13T03:04:10;4.30;;;1.70;;
11763;SDS011;5939;56.522;14.950;2023-10-13T03:06:37;4.43;;;1.53;;
11763;SDS011;5939;56.522;14.950;2023-10-13T03:09:07;5.07;;;1.83;;
11763;SDS011;5939;56.522;14.950;2023-10-13T03:11:51;8.17;;;2.20;;
11763;SDS011;5939;56.522;14.950;2023-10-13T03:14:17;5.17;;;1.93;;
11763;SDS011;5939;56.522;14.950;2023-10-13T03:16:57;5.03;;;2.10;;
11763;SDS011;5939;56.522;14.950;2023-10-13T03:19:31;4.97;;;1.83;;
11763;SDS011;5939;56.522;14.950;2023-10-13T03:22:06;4.30;;;1.80;;
11763;SDS011;5939;56.522;14.950;2023-10-13T03:24:36;5.40;;;2.13;;
11763;SDS011;5939;56.522;14.950;2023-10-13T03:27:07;5.73;;;1.80;;
11763;SDS011;5939;56.522;14.950;2023-10-13T03:29:36;5.67;;;2.00;;
11763;SDS011;5939;56.522;14.950;2023-10-13T03:32:17;4.07;;;1.70;;
11763;SDS011;5939;56.522;14.950;2023-10-13T03:34:43;5.00;;;1.87;;
11763;SDS011;5939;56.522;14.950;2023-10-13T03:37:19;5.80;;;1.87;;
11763;SDS011;5939;56.522;14.950;2023-10-13T03:40:04;4.57;;;1.70;;
11763;SDS011;5939;56.522;14.950;2023-10-13T03:45:30;3.73;;;1.60;;
11763;SDS011;5939;56.522;14.950;2023-10-13T03:48:15;6.43;;;1.83;;
11763;SDS011;5939;56.522;14.950;2023-10-13T03:50:54;4.50;;;1.80;;
11763;SDS011;5939;56.522;14.950;2023-10-13T03:53:39;4.53;;;1.70;;
11763;SDS011;5939;56.522;14.950;2023-10-13T03:56:25;7.13;;;1.60;;
11763;SDS011;5939;56.522;14.950;2023-10-13T03:58:53;4.73;;;1.50;;
11763;SDS011;5939;56.522;14.950;2023-10-13T04:01:23;3.53;;;1.50;;
11763;SDS011;5939;56.522;14.950;2023-10-13T04:03:57;5.43;;;1.97;;
11763;SDS011;5939;56.522;14.950;2023-10-13T04:06:34;4.40;;;2.20;;
11763;SDS011;5939;56.522;14.950;2023-10-13T04:09:18;3.63;;;1.43;;
11763;SDS011;5939;56.522;14.950;2023-10-13T04:11:57;4.83;;;1.70;;
11763;SDS011;5939;56.522;14.950;2023-10-13T04:14:30;5.70;;;1.90;;
11763;SDS011;5939;56.522;14.950;2023-10-13T04:17:15;7.27;;;1.83;;
11763;SDS011;5939;56.522;14.950;2023-10-13T04:19:47;3.17;;;1.63;;
11763;SDS011;5939;56.522;14.950;2023-10-13T04:25:13;5.43;;;1.70;;
11763;SDS011;5939;56.522;14.950;2023-10-13T04:28:04;3.20;;;1.47;;
11763;SDS011;5939;56.522;14.950;2023-10-13T04:30:39;3.63;;;1.60;;
11763;SDS011;5939;56.522;14.950;2023-10-13T04:33:17;3.13;;;1.57;;
11763;SDS011;5939;56.522;14.950;2023-10-13T04:38:50;4.37;;;1.63;;
11763;SDS011;5939;56.522;14.950;2023-10-13T04:41:24;6.50;;;1.93;;
11763;SDS011;5939;56.522;14.950;2023-10-13T04:44:01;5.63;;;1.83;;
11763;SDS011;5939;56.522;14.950;2023-10-13T04:46:30;4.43;;;1.93;;
11763;SDS011;5939;56.522;14.950;2023-10-13T04:49:11;3.70;;;1.63;;
11763;SDS011;5939;56.522;14.950;2023-10-13T04:51:58;5.73;;;1.70;;
11763;SDS011;5939;56.522;14.950;2023-10-13T04:54:34;3.60;;;1.83;;
11763;SDS011;5939;56.522;14.950;2023-10-13T04:57:16;3.63;;;1.70;;
11763;SDS011;5939;56.522;14.950;2023-10-13T04:59:51;3.50;;;1.67;;
11763;SDS011;5939;56.522;14.950;2023-10-13T05:02:36;5.83;;;1.77;;
11763;SDS011;5939;56.522;14.950;2023-10-13T05:05:02;6.37;;;1.93;;
11763;SDS011;5939;56.522;14.950;2023-10-13T05:07:48;5.33;;;1.67;;
11763;SDS011;5939;56.522;14.950;2023-10-13T05:10:33;3.53;;;1.53;;
11763;SDS011;5939;56.522;14.950;2023-10-13T05:13:18;4.23;;;1.70;;
11763;SDS011;5939;56.522;14.950;2023-10-13T05:16:02;4.13;;;2.13;;
11763;SDS011;5939;56.522;14.950;2023-10-13T05:18:46;4.77;;;2.23;;
11763;SDS011;5939;56.522;14.950;2023-10-13T05:21:30;6.57;;;2.37;;
11763;SDS011;5939;56.522;14.950;2023-10-13T05:24:15;4.23;;;1.67;;
11763;SDS011;5939;56.522;14.950;2023-10-13T05:26:59;3.73;;;1.50;;
11763;SDS011;5939;56.522;14.950;2023-10-13T05:29:44;7.50;;;1.73;;
11763;SDS011;5939;56.522;14.950;2023-10-13T05:32:29;4.03;;;1.50;;
11763;SDS011;5939;56.522;14.950;2023-10-13T05:35:14;4.47;;;1.70;;
11763;SDS011;5939;56.522;14.950;2023-10-13T05:37:59;3.53;;;1.60;;
11763;SDS011;5939;56.522;14.950;2023-10-13T05:41:03;3.67;;;1.70;;
11763;SDS011;5939;56.522;14.950;2023-10-13T05:43:48;5.23;;;1.90;;
11763;SDS011;5939;56.522;14.950;2023-10-13T05:46:32;5.40;;;1.80;;
11763;SDS011;5939;56.522;14.950;2023-10-13T05:49:07;6.90;;;2.50;;
11763;SDS011;5939;56.522;14.950;2023-10-13T05:51:34;5.37;;;1.60;;
11763;SDS011;5939;56.522;14.950;2023-10-13T05:54:17;7.53;;;2.17;;
11763;SDS011;5939;56.522;14.950;2023-10-13T05:56:47;3.27;;;1.57;;
11763;SDS011;5939;56.522;14.950;2023-10-13T05:59:34;5.30;;;1.77;;
11763;SDS011;5939;56.522;14.950;2023-10-13T06:02:22;6.47;;;2.00;;
11763;SDS011;5939;56.522;14.950;2023-10-13T06:05:10;5.37;;;1.90;;
11763;SDS011;5939;56.522;14.950;2023-10-13T06:07:55;6.20;;;1.60;;
11763;SDS011;5939;56.522;14.950;2023-10-13T06:10:40;5.03;;;1.80;;
11763;SDS011;5939;56.522;14.950;2023-10-13T06:13:25;6.60;;;2.17;;
11763;SDS011;5939;56.522;14.950;2023-10-13T06:16:14;5.80;;;2.10;;
11763;SDS011;5939;56.522;14.950;2023-10-13T06:19:00;5.60;;;1.77;;
11763;SDS011;5939;56.522;14.950;2023-10-13T06:21:44;2.90;;;1.70;;
11763;SDS011;5939;56.522;14.950;2023-10-13T06:24:29;5.17;;;2.03;;
11763;SDS011;5939;56.522;14.950;2023-10-13T06:27:14;6.93;;;2.37;;
11763;SDS011;5939;56.522;14.950;2023-10-13T06:29:59;6.00;;;2.07;;
11763;SDS011;5939;56.522;14.950;2023-10-13T06:32:26;12.00;;;2.40;;
11763;SDS011;5939;56.522;14.950;2023-10-13T06:34:52;6.30;;;1.90;;
11763;SDS011;5939;56.522;14.950;2023-10-13T06:37:22;4.50;;;1.80;;
11763;SDS011;5939;56.522;14.950;2023-10-13T06:39:56;8.17;;;2.37;;
11763;SDS011;5939;56.522;14.950;2023-10-13T06:42:31;4.43;;;2.27;;
11763;SDS011;5939;56.522;14.950;2023-10-13T06:44:59;6.07;;;1.93;;
11763;SDS011;5939;56.522;14.950;2023-10-13T06:47:36;8.37;;;2.03;;
11763;SDS011;5939;56.522;14.950;2023-10-13T06:50:07;6.00;;;2.17;;
11763;SDS011;5939;56.522;14.950;2023-10-13T06:52:48;5.40;;;2.30;;
11763;SDS011;5939;56.522;14.950;2023-10-13T06:55:14;4.23;;;1.70;;
11763;SDS011;5939;56.522;14.950;2023-10-13T06:57:48;3.93;;;1.90;;
11763;SDS011;5939;56.522;14.950;2023-10-13T07:00:16;9.17;;;2.03;;
11763;SDS011;5939;56.522;14.950;2023-10-13T07:02:54;8.87;;;2.10;;
11763;SDS011;5939;56.522;14.950;2023-10-13T07:05:33;6.40;;;2.07;;
11763;SDS011;5939;56.522;14.950;2023-10-13T07:08:03;6.97;;;1.63;;
11763;SDS011;5939;56.522;14.950;2023-10-13T07:10:32;6.07;;;1.80;;
11763;SDS011;5939;56.522;14.950;2023-10-13T07:13:13;6.50;;;2.07;;
11763;SDS011;5939;56.522;14.950;2023-10-13T07:15:39;5.07;;;1.83;;
11763;SDS011;5939;56.522;14.950;2023-10-13T07:18:15;8.13;;;2.47;;
11763;SDS011;5939;56.522;14.950;2023-10-13T07:20:48;4.83;;;2.13;;
11763;SDS011;5939;56.522;14.950;2023-10-13T07:23:14;4.77;;;2.03;;
11763;SDS011;5939;56.522;14.950;2023-10-13T07:25:50;8.00;;;2.03;;
11763;SDS011;5939;56.522;14.950;2023-10-13T07:28:22;6.97;;;2.43;;
11763;SDS011;5939;56.522;14.950;2023-10-13T07:30:48;3.73;;;1.83;;
11763;SDS011;5939;56.522;14.950;2023-10-13T07:33:19;6.57;;;2.53;;
11763;SDS011;5939;56.522;14.950;2023-10-13T07:35:46;6.50;;;2.50;;
11763;SDS011;5939;56.522;14.950;2023-10-13T07:38:16;7.63;;;2.17;;
11763;SDS011;5939;56.522;14.950;2023-10-13T07:40:42;7.90;;;2.40;;
11763;SDS011;5939;56.522;14.950;2023-10-13T07:43:15;7.10;;;2.53;;
11763;SDS011;5939;56.522;14.950;2023-10-13T07:45:46;7.23;;;2.33;;
11763;SDS011;5939;56.522;14.950;2023-10-13T07:48:16;5.83;;;2.50;;
11763;SDS011;5939;56.522;14.950;2023-10-13T07:50:45;5.67;;;2.23;;
11763;SDS011;5939;56.522;14.950;2023-10-13T07:53:11;8.17;;;2.43;;
11763;SDS011;5939;56.522;14.950;2023-10-13T07:55:52;9.90;;;2.10;;
11763;SDS011;5939;56.522;14.950;2023-10-13T07:58:23;7.33;;;2.50;;
11763;SDS011;5939;56.522;14.950;2023-10-13T08:00:50;6.83;;;2.43;;
11763;SDS011;5939;56.522;14.950;2023-10-13T08:03:35;8.90;;;2.30;;
11763;SDS011;5939;56.522;14.950;2023-10-13T08:06:10;6.87;;;2.33;;
11763;SDS011;5939;56.522;14.950;2023-10-13T08:08:40;9.30;;;2.53;;
11763;SDS011;5939;56.522;14.950;2023-10-13T08:11:09;9.57;;;2.90;;
11763;SDS011;5939;56.522;14.950;2023-10-13T08:13:48;12.63;;;2.73;;
11763;SDS011;5939;56.522;14.950;2023-10-13T08:16:24;12.63;;;2.87;;
11763;SDS011;5939;56.522;14.950;2023-10-13T08:19:18;7.20;;;2.83;;
11763;SDS011;5939;56.522;14.950;2023-10-13T08:21:45;8.73;;;2.57;;
11763;SDS011;5939;56.522;14.950;2023-10-13T08:24:22;6.87;;;2.57;;
11763;SDS011;5939;56.522;14.950;2023-10-13T08:27:23;9.13;;;2.33;;
11763;SDS011;5939;56.522;14.950;2023-10-13T08:30:13;15.13;;;3.17;;
11763;SDS011;5939;56.522;14.950;2023-10-13T08:32:51;14.37;;;3.20;;
11763;SDS011;5939;56.522;14.950;2023-10-13T08:35:20;11.97;;;3.50;;
11763;SDS011;5939;56.522;14.950;2023-10-13T08:38:09;8.47;;;2.43;;
11763;SDS011;5939;56.522;14.950;2023-10-13T08:40:43;8.53;;;3.17;;
11763;SDS011;5939;56.522;14.950;2023-10-13T08:43:41;9.30;;;2.83;;
11763;SDS011;5939;56.522;14.950;2023-10-13T08:46:15;8.20;;;2.97;;
11763;SDS011;5939;56.522;14.950;2023-10-13T08:48:57;9.03;;;2.90;;
11763;SDS011;5939;56.522;14.950;2023-10-13T08:51:33;9.77;;;2.67;;
11763;SDS011;5939;56.522;14.950;2023-10-13T08:54:13;9.83;;;3.87;;
11763;SDS011;5939;56.522;14.950;2023-10-13T08:56:59;9.47;;;2.93;;
11763;SDS011;5939;56.522;14.950;2023-10-13T08:59:44;14.17;;;3.13;;
11763;SDS011;5939;56.522;14.950;2023-10-13T09:02:18;12.73;;;2.83;;
11763;SDS011;5939;56.522;14.950;2023-10-13T09:05:07;8.73;;;2.83;;
11763;SDS011;5939;56.522;14.950;2023-10-13T09:07:54;14.47;;;3.63;;
11763;SDS011;5939;56.522;14.950;2023-10-13T09:10:22;11.00;;;3.20;;
11763;SDS011;5939;56.522;14.950;2023-10-13T09:13:09;11.77;;;2.70;;
11763;SDS011;5939;56.522;14.950;2023-10-13T09:15:43;10.33;;;3.00;;
11763;SDS011;5939;56.522;14.950;2023-10-13T09:18:27;10.63;;;3.13;;
11763;SDS011;5939;56.522;14.950;2023-10-13T09:21:11;9.73;;;3.10;;
11763;SDS011;5939;56.522;14.950;2023-10-13T09:23:56;11.67;;;3.20;;
11763;SDS011;5939;56.522;14.950;2023-10-13T09:26:41;10.30;;;2.70;;
11763;SDS011;5939;56.522;14.950;2023-10-13T09:29:20;9.87;;;2.90;;
11763;SDS011;5939;56.522;14.950;2023-10-13T09:31:47;11.83;;;2.90;;
11763;SDS011;5939;56.522;14.950;2023-10-13T09:34:24;12.83;;;3.27;;
11763;SDS011;5939;56.522;14.950;2023-10-13T09:36:54;12.87;;;3.23;;
11763;SDS011;5939;56.522;14.950;2023-10-13T09:39:28;10.97;;;3.37;;
11763;SDS011;5939;56.522;14.950;2023-10-13T09:42:05;9.60;;;3.20;;
11763;SDS011;5939;56.522;14.950;2023-10-13T09:44:35;12.23;;;3.03;;
11763;SDS011;5939;56.522;14.950;2023-10-13T09:47:03;7.60;;;2.77;;
11763;SDS011;5939;56.522;14.950;2023-10-13T09:49:43;9.20;;;3.00;;
11763;SDS011;5939;56.522;14.950;2023-10-13T09:52:19;11.30;;;3.13;;
11763;SDS011;5939;56.522;14.950;2023-10-13T09:54:53;9.00;;;2.37;;
11763;SDS011;5939;56.522;14.950;2023-10-13T09:57:35;9.87;;;2.83;;
11763;SDS011;5939;56.522;14.950;2023-10-13T10:00:10;7.73;;;2.90;;
11763;SDS011;5939;56.522;14.950;2023-10-13T10:02:57;13.23;;;3.07;;
11763;SDS011;5939;56.522;14.950;2023-10-13T10:05:29;10.30;;;2.90;;
11763;SDS011;5939;56.522;14.950;2023-10-13T10:07:59;14.30;;;3.47;;
11763;SDS011;5939;56.522;14.950;2023-10-13T10:10:43;9.40;;;2.73;;
11763;SDS011;5939;56.522;14.950;2023-10-13T10:13:28;12.13;;;3.00;;
11763;SDS011;5939;56.522;14.950;2023-10-13T10:16:10;8.50;;;2.63;;
11763;SDS011;5939;56.522;14.950;2023-10-13T10:18:41;7.47;;;3.07;;
11763;SDS011;5939;56.522;14.950;2023-10-13T10:21:07;7.87;;;2.43;;
11763;SDS011;5939;56.522;14.950;2023-10-13T10:23:35;15.03;;;3.43;;
11763;SDS011;5939;56.522;14.950;2023-10-13T10:26:10;9.83;;;3.13;;
11763;SDS011;5939;56.522;14.950;2023-10-13T10:28:41;6.67;;;2.10;;
11763;SDS011;5939;56.522;14.950;2023-10-13T10:31:09;8.30;;;2.30;;
11763;SDS011;5939;56.522;14.950;2023-10-13T10:33:47;10.00;;;2.73;;
11763;SDS011;5939;56.522;14.950;2023-10-13T10:36:15;8.30;;;2.40;;
11763;SDS011;5939;56.522;14.950;2023-10-13T10:38:53;9.20;;;2.20;;
11763;SDS011;5939;56.522;14.950;2023-10-13T10:41:27;10.97;;;2.60;;
11763;SDS011;5939;56.522;14.950;2023-10-13T10:44:15;9.67;;;2.60;;
11763;SDS011;5939;56.522;14.950;2023-10-13T10:46:41;9.73;;;2.70;;
11763;SDS011;5939;56.522;14.950;2023-10-13T10:49:18;8.90;;;2.70;;
11763;SDS011;5939;56.522;14.950;2023-10-13T10:51:52;7.17;;;2.23;;
11763;SDS011;5939;56.522;14.950;2023-10-13T10:54:25;6.67;;;2.13;;
11763;SDS011;5939;56.522;14.950;2023-10-13T10:56:56;5.17;;;2.13;;
11763;SDS011;5939;56.522;14.950;2023-10-13T10:59:24;6.70;;;2.13;;
11763;SDS011;5939;56.522;14.950;2023-10-13T11:01:54;9.93;;;2.50;;
11763;SDS011;5939;56.522;14.950;2023-10-13T11:04:19;6.57;;;2.23;;
11763;SDS011;5939;56.522;14.950;2023-10-13T11:06:51;8.93;;;2.50;;
11763;SDS011;5939;56.522;14.950;2023-10-13T11:09:35;9.53;;;2.80;;
11763;SDS011;5939;56.522;14.950;2023-10-13T11:12:11;7.10;;;2.27;;
11763;SDS011;5939;56.522;14.950;2023-10-13T11:14:42;8.27;;;2.50;;
11763;SDS011;5939;56.522;14.950;2023-10-13T11:17:18;8.73;;;2.67;;
11763;SDS011;5939;56.522;14.950;2023-10-13T11:20:13;5.00;;;1.90;;
11763;SDS011;5939;56.522;14.950;2023-10-13T11:22:46;5.90;;;1.97;;
11763;SDS011;5939;56.522;14.950;2023-10-13T11:25:20;6.57;;;1.70;;
11763;SDS011;5939;56.522;14.950;2023-10-13T11:27:54;5.43;;;2.07;;
11763;SDS011;5939;56.522;14.950;2023-10-13T11:30:25;4.27;;;1.70;;
11763;SDS011;5939;56.522;14.950;2023-10-13T11:33:03;7.63;;;2.03;;
11763;SDS011;5939;56.522;14.950;2023-10-13T11:35:31;5.57;;;1.70;;
11763;SDS011;5939;56.522;14.950;2023-10-13T11:38:31;4.27;;;1.43;;
11763;SDS011;5939;56.522;14.950;2023-10-13T11:41:15;5.60;;;1.70;;
11763;SDS011;5939;56.522;14.950;2023-10-13T11:43:43;3.50;;;1.80;;
11763;SDS011;5939;56.522;14.950;2023-10-13T11:46:20;4.57;;;1.87;;
11763;SDS011;5939;56.522;14.950;2023-10-13T11:49:06;5.47;;;1.70;;
11763;SDS011;5939;56.522;14.950;2023-10-13T11:51:49;4.73;;;1.60;;
11763;SDS011;5939;56.522;14.950;2023-10-13T11:54:20;2.00;;;1.13;;
11763;SDS011;5939;56.522;14.950;2023-10-13T11:56:49;3.67;;;1.40;;
11763;SDS011;5939;56.522;14.950;2023-10-13T11:59:14;3.83;;;1.27;;
11763;SDS011;5939;56.522;14.950;2023-10-13T12:01:44;2.47;;;1.27;;
11763;SDS011;5939;56.522;14.950;2023-10-13T12:04:32;2.47;;;1.30;;
11763;SDS011;5939;56.522;14.950;2023-10-13T12:07:17;2.90;;;1.47;;
11763;SDS011;5939;56.522;14.950;2023-10-13T12:10:06;1.90;;;1.10;;
11763;SDS011;5939;56.522;14.950;2023-10-13T12:12:40;1.27;;;1.07;;
11763;SDS011;5939;56.522;14.950;2023-10-13T12:15:08;2.60;;;1.40;;
11763;SDS011;5939;56.522;14.950;2023-10-13T12:17:35;2.23;;;1.07;;
11763;SDS011;5939;56.522;14.950;2023-10-13T12:20:01;2.53;;;1.13;;
11763;SDS011;5939;56.522;14.950;2023-10-13T12:22:34;2.27;;;1.10;;
11763;SDS011;5939;56.522;14.950;2023-10-13T12:25:01;2.27;;;1.50;;
11763;SDS011;5939;56.522;14.950;2023-10-13T12:27:43;2.30;;;1.20;;
11763;SDS011;5939;56.522;14.950;2023-10-13T12:30:13;1.70;;;1.13;;
11763;SDS011;5939;56.522;14.950;2023-10-13T12:32:47;2.17;;;1.10;;
11763;SDS011;5939;56.522;14.950;2023-10-13T12:35:23;1.60;;;0.97;;
11763;SDS011;5939;56.522;14.950;2023-10-13T12:38:00;1.87;;;1.10;;
11763;SDS011;5939;56.522;14.950;2023-10-13T12:40:41;1.53;;;1.20;;
11763;SDS011;5939;56.522;14.950;2023-10-13T12:43:25;1.53;;;1.10;;
11763;SDS011;5939;56.522;14.950;2023-10-13T12:46:09;2.80;;;1.13;;
11763;SDS011;5939;56.522;14.950;2023-10-13T12:48:53;1.33;;;1.00;;
11763;SDS011;5939;56.522;14.950;2023-10-13T12:51:39;1.40;;;1.20;;
11763;SDS011;5939;56.522;14.950;2023-10-13T12:54:15;2.27;;;1.23;;
11763;SDS011;5939;56.522;14.950;2023-10-13T12:57:00;1.70;;;1.30;;
11763;SDS011;5939;56.522;14.950;2023-10-13T12:59:26;2.03;;;1.40;;
11763;SDS011;5939;56.522;14.950;2023-10-13T13:01:52;1.87;;;1.23;;
11763;SDS011;5939;56.522;14.950;2023-10-13T13:04:18;2.10;;;1.27;;
11763;SDS011;5939;56.522;14.950;2023-10-13T13:06:48;3.43;;;1.40;;
11763;SDS011;5939;56.522;14.950;2023-10-13T13:09:15;2.23;;;1.40;;
11763;SDS011;5939;56.522;14.950;2023-10-13T13:11:41;1.60;;;1.20;;
11763;SDS011;5939;56.522;14.950;2023-10-13T13:14:07;1.80;;;1.50;;
11763;SDS011;5939;56.522;14.950;2023-10-13T13:16:33;2.23;;;1.40;;
11763;SDS011;5939;56.522;14.950;2023-10-13T13:18:59;2.23;;;1.67;;
11763;SDS011;5939;56.522;14.950;2023-10-13T13:21:28;2.53;;;1.93;;
11763;SDS011;5939;56.522;14.950;2023-10-13T13:23:54;3.63;;;1.70;;
11763;SDS011;5939;56.522;14.950;2023-10-13T13:26:20;2.40;;;1.53;;
11763;SDS011;5939;56.522;14.950;2023-10-13T13:28:48;2.00;;;1.50;;
11763;SDS011;5939;56.522;14.950;2023-10-13T13:31:18;2.50;;;1.30;;
11763;SDS011;5939;56.522;14.950;2023-10-13T13:33:43;2.73;;;1.60;;
11763;SDS011;5939;56.522;14.950;2023-10-13T13:36:09;7.93;;;6.00;;
11763;SDS011;5939;56.522;14.950;2023-10-13T13:38:40;24.40;;;21.30;;
11763;SDS011;5939;56.522;14.950;2023-10-13T13:41:12;11.47;;;10.27;;
11763;SDS011;5939;56.522;14.950;2023-10-13T13:43:48;10.20;;;8.37;;
11763;SDS011;5939;56.522;14.950;2023-10-13T13:46:24;8.23;;;6.80;;
11763;SDS011;5939;56.522;14.950;2023-10-13T13:48:58;6.77;;;6.07;;
11763;SDS011;5939;56.522;14.950;2023-10-13T13:51:25;7.47;;;6.10;;
11763;SDS011;5939;56.522;14.950;2023-10-13T13:53:57;6.30;;;5.70;;
11763;SDS011;5939;56.522;14.950;2023-10-13T13:56:24;5.50;;;4.67;;
11763;SDS011;5939;56.522;14.950;2023-10-13T13:58:52;5.47;;;4.97;;
11763;SDS011;5939;56.522;14.950;2023-10-13T14:01:18;5.13;;;4.30;;
11763;SDS011;5939;56.522;14.950;2023-10-13T14:03:47;4.33;;;3.60;;
11763;SDS011;5939;56.522;14.950;2023-10-13T14:06:19;3.80;;;3.40;;
11763;SDS011;5939;56.522;14.950;2023-10-13T14:08:53;3.40;;;3.03;;
11763;SDS011;5939;56.522;14.950;2023-10-13T14:11:20;3.10;;;2.80;;
11763;SDS011;5939;56.522;14.950;2023-10-13T14:13:48;3.90;;;2.87;;
11763;SDS011;5939;56.522;14.950;2023-10-13T14:16:15;3.10;;;2.80;;
11763;SDS011;5939;56.522;14.950;2023-10-13T14:18:45;2.93;;;2.13;;
11763;SDS011;5939;56.522;14.950;2023-10-13T14:21:11;2.43;;;1.90;;
11763;SDS011;5939;56.522;14.950;2023-10-13T14:23:58;2.30;;;2.10;;
11763;SDS011;5939;56.522;14.950;2023-10-13T14:26:25;2.23;;;1.97;;
11763;SDS011;5939;56.522;14.950;2023-10-13T14:28:51;2.43;;;2.07;;
11763;SDS011;5939;56.522;14.950;2023-10-13T14:31:32;3.07;;;2.03;;
11763;SDS011;5939;56.522;14.950;2023-10-13T14:33:57;2.13;;;1.70;;
11763;SDS011;5939;56.522;14.950;2023-10-13T14:36:23;3.33;;;1.77;;
11763;SDS011;5939;56.522;14.950;2023-10-13T14:38:53;1.63;;;1.53;;
11763;SDS011;5939;56.522;14.950;2023-10-13T14:41:20;1.63;;;1.33;;
11763;SDS011;5939;56.522;14.950;2023-10-13T14:43:46;1.40;;;1.20;;
11763;SDS011;5939;56.522;14.950;2023-10-13T14:48:42;1.60;;;1.47;;
11763;SDS011;5939;56.522;14.950;2023-10-13T14:51:09;1.87;;;1.67;;
11763;SDS011;5939;56.522;14.950;2023-10-13T14:53:38;1.70;;;1.60;;
11763;SDS011;5939;56.522;14.950;2023-10-13T14:56:09;1.60;;;1.40;;
11763;SDS011;5939;56.522;14.950;2023-10-13T14:58:38;1.93;;;1.50;;
11763;SDS011;5939;56.522;14.950;2023-10-13T15:01:17;1.80;;;1.50;;
11763;SDS011;5939;56.522;14.950;2023-10-13T15:03:45;1.60;;;1.50;;
11763;SDS011;5939;56.522;14.950;2023-10-13T15:06:18;1.50;;;1.40;;
11763;SDS011;5939;56.522;14.950;2023-10-13T15:08:50;1.97;;;1.77;;
11763;SDS011;5939;56.522;14.950;2023-10-13T15:11:16;2.60;;;2.10;;
11763;SDS011;5939;56.522;14.950;2023-10-13T15:13:45;2.17;;;1.97;;
11763;SDS011;5939;56.522;14.950;2023-10-13T15:18:42;3.17;;;2.60;;
11763;SDS011;5939;56.522;14.950;2023-10-13T15:21:21;2.50;;;2.30;;
11763;SDS011;5939;56.522;14.950;2023-10-13T15:23:49;2.20;;;2.00;;
11763;SDS011;5939;56.522;14.950;2023-10-13T15:26:17;2.50;;;2.00;;
11763;SDS011;5939;56.522;14.950;2023-10-13T15:28:43;2.77;;;2.40;;
11763;SDS011;5939;56.522;14.950;2023-10-13T15:31:18;2.30;;;2.10;;
11763;SDS011;5939;56.522;14.950;2023-10-13T15:34:00;2.50;;;2.30;;
11763;SDS011;5939;56.522;14.950;2023-10-13T15:36:38;2.40;;;2.20;;
11763;SDS011;5939;56.522;14.950;2023-10-13T15:39:04;3.27;;;2.53;;
11763;SDS011;5939;56.522;14.950;2023-10-13T15:41:33;3.47;;;2.30;;